Pelham, North Carolina
Current Conditions -  °F | °C
As of 7:53 PM on Thursday 27 Nov 2014 (Local Time) from KDAN Reporting Station
Overcast Overcast  
Wind Chill: 33°   Ceiling: 4500
Heat Index: 40°   Visibility: 10mi
Dew Point: 25°   Wind: 12mph
Humidity: 55%   Direction: 310°NW
Pressure: 30.23"   Gusts: NA
Location:  36.51°N, 79.47°W
Report Text: KDAN 280053Z AUTO 31010KT 10SM OVC045 04/M04 A3023 RMK AO2 SLP232 T00441039
Loading
Personal Weather Stations






























Interactive Weather Map New forecast layout! Learn more

10-Day Weather Forecast

Advertisements
Track Severe Weather on mobile